createdAt,value
2019-05-23T00:00:01.954Z,84.61
2019-05-23T00:01:01.962Z,84.38
2019-05-23T00:02:01.981Z,84.13
2019-05-23T00:03:01.982Z,84.42
2019-05-23T00:04:01.983Z,84.85
2019-05-23T00:06:02.017Z,85.05
2019-05-23T00:07:02.001Z,85.42
2019-05-23T00:08:02.031Z,84.61
2019-05-23T00:09:02.054Z,84.99
2019-05-23T00:10:02.032Z,85.05
2019-05-23T00:11:02.038Z,85.09
2019-05-23T00:12:02.044Z,85.05
2019-05-23T00:13:02.058Z,85.05
2019-05-23T00:14:02.059Z,84.85
2019-05-23T00:15:02.311Z,85.33
2019-05-23T00:16:02.116Z,85.90
2019-05-23T00:17:02.084Z,86.19
2019-05-23T00:18:02.099Z,85.42
2019-05-23T00:19:02.101Z,85.42
2019-05-23T00:20:02.110Z,85.33
2019-05-23T00:21:02.116Z,86.29
2019-05-23T00:22:02.128Z,86.29
2019-05-23T00:23:02.127Z,85.24
2019-05-23T00:24:02.173Z,85.42
2019-05-23T00:25:02.164Z,86.00
2019-05-23T00:26:02.307Z,85.71
2019-05-23T00:27:02.167Z,86.19
2019-05-23T00:28:02.168Z,87.24
2019-05-23T00:29:10.089Z,87.34
2019-05-23T00:30:02.177Z,87.24
2019-05-23T00:31:02.191Z,87.05
2019-05-23T00:32:02.194Z,87.68
2019-05-23T00:33:02.204Z,87.72
2019-05-23T00:34:02.221Z,87.68
2019-05-23T00:35:02.229Z,87.68
2019-05-23T00:36:02.279Z,87.77
2019-05-23T00:37:02.242Z,88.44
2019-05-23T00:38:02.247Z,88.63
2019-05-23T00:39:02.258Z,88.73
2019-05-23T00:40:02.255Z,88.63
2019-05-23T00:41:02.272Z,89.78
2019-05-23T00:42:02.270Z,89.68
2019-05-23T00:43:02.283Z,89.49
2019-05-23T00:44:02.331Z,90.25
2019-05-23T00:45:02.305Z,90.06
2019-05-23T00:46:02.315Z,90.06
2019-05-23T00:47:02.311Z,90.73
2019-05-23T00:48:02.326Z,90.88
2019-05-23T00:49:02.336Z,91.02
2019-05-23T00:50:02.331Z,90.92
2019-05-23T00:51:39.015Z,91.36
2019-05-23T00:52:02.354Z,91.07
2019-05-23T00:53:02.357Z,91.83
2019-05-23T00:54:02.437Z,92.31
2019-05-23T00:55:02.376Z,92.21
2019-05-23T00:56:02.379Z,92.21
2019-05-23T00:57:02.388Z,92.60
2019-05-23T00:58:02.391Z,92.60
2019-05-23T00:59:02.402Z,92.50
2019-05-23T01:00:02.412Z,92.02
2019-05-23T01:01:02.418Z,92.21
2019-05-23T01:02:02.424Z,92.50
2019-05-23T01:03:02.430Z,92.41
2019-05-23T01:04:02.501Z,92.88
2019-05-23T01:05:02.446Z,92.93
2019-05-23T01:06:02.469Z,93.88
2019-05-23T01:07:02.460Z,94.27
2019-05-23T01:08:02.478Z,94.74
2019-05-23T01:09:02.472Z,94.36
2019-05-23T01:10:02.480Z,94.74
2019-05-23T01:11:02.483Z,94.93
2019-05-23T01:12:02.499Z,95.12
2019-05-23T01:13:02.509Z,95.41
2019-05-23T01:14:02.505Z,95.12
2019-05-23T01:15:02.522Z,95.03
2019-05-23T01:16:02.524Z,95.70
2019-05-23T01:17:02.590Z,95.03
2019-05-23T01:18:02.536Z,94.74
2019-05-23T01:19:02.547Z,95.03
2019-05-23T01:20:02.554Z,95.41
2019-05-23T01:21:02.557Z,95.32
2019-05-23T01:22:02.567Z,95.32
2019-05-23T01:23:02.575Z,95.79
2019-05-23T01:24:02.588Z,95.79
2019-05-23T01:25:02.582Z,95.89
2019-05-23T01:26:02.643Z,96.27
2019-05-23T01:27:02.612Z,96.27
2019-05-23T01:28:02.606Z,96.66
2019-05-23T01:29:02.615Z,96.56
2019-05-23T01:30:02.621Z,96.56
2019-05-23T01:31:02.630Z,96.08
2019-05-23T01:32:02.652Z,96.37
2019-05-23T01:33:02.653Z,97.42
2019-05-23T01:34:02.648Z,96.56
2019-05-23T01:35:02.659Z,96.17
2019-05-23T01:36:02.662Z,96.56
2019-05-23T01:37:02.672Z,97.42
2019-05-23T01:38:04.292Z,97.42
2019-05-23T01:39:02.689Z,97.32
2019-05-23T01:40:02.690Z,97.13
2019-05-23T01:41:02.695Z,97.22
2019-05-23T01:42:02.697Z,98.08
2019-05-23T01:43:02.713Z,97.99
2019-05-23T01:44:02.720Z,98.18
2019-05-23T01:45:02.723Z,98.08
2019-05-23T01:46:02.731Z,98.56
2019-05-23T01:47:02.746Z,97.80
2019-05-23T01:48:02.746Z,97.99
2019-05-23T01:49:02.755Z,98.66
2019-05-23T01:50:02.757Z,98.94
2019-05-23T01:51:02.765Z,98.94
2019-05-23T01:52:02.775Z,99.13
2019-05-23T01:53:02.782Z,98.27
2019-05-23T01:54:02.788Z,98.27
2019-05-23T01:55:02.868Z,98.56
2019-05-23T01:56:02.807Z,98.47
2019-05-23T01:57:02.815Z,98.27
2019-05-23T01:58:02.819Z,98.85
2019-05-23T01:59:02.820Z,98.75
2019-05-23T02:00:10.401Z,99.61
2019-05-23T02:01:02.835Z,99.42
2019-05-23T02:02:02.838Z,99.52
2019-05-23T02:03:02.853Z,98.94
2019-05-23T02:04:02.864Z,99.04
2019-05-23T02:05:02.909Z,99.32
2019-05-23T02:06:02.872Z,98.90
2019-05-23T02:07:02.902Z,99.46
2019-05-23T02:08:02.900Z,99.85
2019-05-23T02:09:02.890Z,99.52
2019-05-23T02:10:02.911Z,99.13
2019-05-23T02:11:02.905Z,98.94
2019-05-23T02:12:02.922Z,98.66
2019-05-23T02:13:02.936Z,97.89
2019-05-23T02:14:02.929Z,98.37
2019-05-23T02:15:02.933Z,98.18
2019-05-23T02:16:02.944Z,98.66
2019-05-23T02:17:02.949Z,98.37
2019-05-23T02:18:03.035Z,98.80
2019-05-23T02:19:02.966Z,98.70
2019-05-23T02:20:02.987Z,98.90
2019-05-23T02:21:03.015Z,99.46
2019-05-23T02:22:02.983Z,99.32
2019-05-23T02:23:02.989Z,99.61
2019-05-23T02:24:02.993Z,99.71
2019-05-23T02:25:03.005Z,99.52
2019-05-23T02:26:03.013Z,99.71
2019-05-23T02:27:03.028Z,98.47
2019-05-23T02:28:03.027Z,97.66
2019-05-23T02:29:03.030Z,98.42
2019-05-23T02:30:03.037Z,98.61
2019-05-23T02:31:03.039Z,99.18
2019-05-23T02:32:03.052Z,98.32
2019-05-23T02:33:03.121Z,98.61
2019-05-23T02:34:03.056Z,98.61
2019-05-23T02:35:03.066Z,99.46
2019-05-23T02:36:03.072Z,99.75
2019-05-23T02:37:03.080Z,99.18
2019-05-23T02:38:03.095Z,99.27
2019-05-23T02:39:03.095Z,99.95
2019-05-23T02:40:03.091Z,99.99
2019-05-23T02:41:03.109Z,99.99
2019-05-23T02:42:03.124Z,99.99
2019-05-23T02:43:03.277Z,99.99
2019-05-23T02:44:03.128Z,99.99
2019-05-23T02:45:03.133Z,99.99
2019-05-23T02:46:03.153Z,99.99
2019-05-23T02:47:03.147Z,99.99
2019-05-23T02:48:03.154Z,99.99
2019-05-23T02:49:03.189Z,99.99
2019-05-23T02:50:03.166Z,99.99
2019-05-23T02:51:03.177Z,99.99
2019-05-23T02:52:03.184Z,99.99
2019-05-23T02:53:03.190Z,99.99
2019-05-23T02:54:03.200Z,99.99
2019-05-23T02:55:03.204Z,99.99
2019-05-23T02:56:03.274Z,99.99
2019-05-23T02:57:03.228Z,99.99
2019-05-23T02:58:03.227Z,99.99
2019-05-23T02:59:03.228Z,99.99
2019-05-23T03:00:03.235Z,99.99
2019-05-23T03:01:03.240Z,99.99
2019-05-23T03:02:03.245Z,99.99
2019-05-23T03:03:03.259Z,99.99
2019-05-23T03:04:03.250Z,99.99
2019-05-23T03:05:03.263Z,99.99
2019-05-23T03:06:03.270Z,99.99
2019-05-23T03:07:03.285Z,99.99
2019-05-23T03:08:03.286Z,99.99
2019-05-23T03:09:03.297Z,99.99
2019-05-23T03:10:03.308Z,99.99
2019-05-23T03:11:03.306Z,99.99
2019-05-23T03:12:03.309Z,99.99
2019-05-23T03:13:03.316Z,99.99
2019-05-23T03:14:03.319Z,99.99
2019-05-23T03:15:03.328Z,99.99
2019-05-23T03:16:03.345Z,99.99
2019-05-23T03:17:03.338Z,99.99
2019-05-23T03:18:03.347Z,99.99
2019-05-23T03:19:03.381Z,99.99
2019-05-23T03:20:03.365Z,99.99
2019-05-23T03:21:03.455Z,99.99
2019-05-23T03:22:03.373Z,99.99
2019-05-23T03:23:03.383Z,99.99
2019-05-23T03:24:03.455Z,99.99
2019-05-23T03:25:03.394Z,99.99
2019-05-23T03:26:03.402Z,99.99
2019-05-23T03:27:03.404Z,99.99
2019-05-23T03:28:03.405Z,99.99
2019-05-23T03:29:03.422Z,99.99
2019-05-23T03:30:03.430Z,99.99
2019-05-23T03:31:27.375Z,99.99
2019-05-23T03:32:03.440Z,99.99
2019-05-23T03:33:03.444Z,99.99
2019-05-23T03:34:03.450Z,99.99
2019-05-23T03:35:03.458Z,99.99
2019-05-23T03:36:03.467Z,99.99
2019-05-23T03:37:03.507Z,99.99
2019-05-23T03:38:03.475Z,99.99
2019-05-23T03:39:03.488Z,99.99
2019-05-23T03:40:03.487Z,99.99
2019-05-23T03:41:03.498Z,99.99
2019-05-23T03:42:03.513Z,99.99
2019-05-23T03:43:03.518Z,99.99
2019-05-23T03:44:03.506Z,99.99
2019-05-23T03:45:03.527Z,99.99
2019-05-23T03:46:03.552Z,99.99
2019-05-23T03:47:03.705Z,99.99
2019-05-23T03:48:03.541Z,99.99
2019-05-23T03:49:03.545Z,99.99
2019-05-23T03:50:03.555Z,99.99
2019-05-23T03:51:03.569Z,99.99
2019-05-23T03:52:03.568Z,99.99
2019-05-23T03:53:03.573Z,99.99
2019-05-23T03:54:03.588Z,99.99
2019-05-23T03:55:03.590Z,99.99
2019-05-23T03:56:03.595Z,99.99
2019-05-23T03:57:03.606Z,99.99
2019-05-23T03:58:03.604Z,99.99
2019-05-23T03:59:03.613Z,99.99
2019-05-23T04:00:03.626Z,99.99
2019-05-23T04:01:03.639Z,99.99
2019-05-23T04:02:03.648Z,99.99
2019-05-23T04:03:03.788Z,99.99
2019-05-23T04:04:03.650Z,99.99
2019-05-23T04:05:03.711Z,99.99
2019-05-23T04:06:03.654Z,99.99
2019-05-23T04:07:03.667Z,99.99
2019-05-23T04:08:03.696Z,99.99
2019-05-23T04:09:03.699Z,99.99
2019-05-23T04:10:03.678Z,99.99
2019-05-23T04:11:03.688Z,99.99
2019-05-23T04:12:03.702Z,99.99
2019-05-23T04:13:03.707Z,99.99
2019-05-23T04:14:03.715Z,99.99
2019-05-23T04:15:03.791Z,99.99
2019-05-23T04:16:03.737Z,99.99
2019-05-23T04:17:03.736Z,99.99
2019-05-23T04:18:03.745Z,99.99
2019-05-23T04:19:03.749Z,99.99
2019-05-23T04:20:03.749Z,99.99
2019-05-23T04:21:03.761Z,99.99
2019-05-23T04:22:03.757Z,99.99
2019-05-23T04:23:03.771Z,99.99
2019-05-23T04:24:03.780Z,99.99
2019-05-23T04:25:03.787Z,99.99
2019-05-23T04:26:03.789Z,99.99
2019-05-23T04:27:03.806Z,99.99
2019-05-23T04:28:03.808Z,99.99
2019-05-23T04:29:03.827Z,99.99
2019-05-23T04:30:03.824Z,99.99
2019-05-23T04:31:03.820Z,99.99
2019-05-23T04:32:08.528Z,99.99
2019-05-23T04:33:03.838Z,99.99
2019-05-23T04:34:03.858Z,99.99
2019-05-23T04:35:03.849Z,99.99
2019-05-23T04:36:03.867Z,99.99
2019-05-23T04:37:03.872Z,99.99
2019-05-23T04:38:03.951Z,99.99
2019-05-23T04:39:03.895Z,99.99
2019-05-23T04:40:03.893Z,99.99
2019-05-23T04:41:03.896Z,99.99
2019-05-23T04:42:03.907Z,99.99
2019-05-23T04:43:03.914Z,99.99
2019-05-23T04:44:03.917Z,99.99
2019-05-23T04:45:03.916Z,99.99
2019-05-23T04:46:03.931Z,99.99
2019-05-23T04:47:03.937Z,99.99
2019-05-23T04:48:03.942Z,99.99
2019-05-23T04:49:03.953Z,99.99
2019-05-23T04:50:03.965Z,99.99
2019-05-23T04:51:03.972Z,99.99
2019-05-23T04:52:03.978Z,99.99
2019-05-23T04:53:03.974Z,99.99
2019-05-23T04:54:03.990Z,99.99
2019-05-23T04:55:04.000Z,99.99
2019-05-23T04:56:04.004Z,99.99
2019-05-23T04:57:04.019Z,99.99
2019-05-23T04:58:05.059Z,99.99
2019-05-23T04:59:04.026Z,99.99
2019-05-23T05:00:04.031Z,99.99
2019-05-23T05:01:04.037Z,99.99
2019-05-23T05:02:04.046Z,99.99
2019-05-23T05:03:04.054Z,99.99
2019-05-23T05:04:04.060Z,99.99
2019-05-23T05:05:04.067Z,99.99
2019-05-23T05:06:04.097Z,99.99
2019-05-23T05:07:04.082Z,99.99
2019-05-23T05:08:04.203Z,99.99
2019-05-23T05:09:04.094Z,99.99
2019-05-23T05:10:04.103Z,99.99
2019-05-23T05:11:04.112Z,99.99
2019-05-23T05:12:04.119Z,99.99
2019-05-23T05:13:04.123Z,99.99
2019-05-23T05:14:04.129Z,99.99
2019-05-23T05:15:04.144Z,99.99
2019-05-23T05:16:04.152Z,99.99
2019-05-23T05:17:04.147Z,99.99
2019-05-23T05:18:04.160Z,99.99
2019-05-23T05:19:04.173Z,99.99
2019-05-23T05:20:04.174Z,99.99
2019-05-23T05:21:04.184Z,99.99
2019-05-23T05:22:04.230Z,99.99
2019-05-23T05:23:04.195Z,99.99
2019-05-23T05:24:04.206Z,99.99
2019-05-23T05:25:04.213Z,99.99
2019-05-23T05:26:04.215Z,99.99
2019-05-23T05:27:04.242Z,99.99
2019-05-23T05:28:04.233Z,99.99
2019-05-23T05:29:04.284Z,99.99
2019-05-23T05:30:04.242Z,99.99
2019-05-23T05:31:04.274Z,99.99
2019-05-23T05:32:04.333Z,99.99
2019-05-23T05:33:04.274Z,99.99
2019-05-23T05:34:04.281Z,99.99
2019-05-23T05:35:04.291Z,99.99
2019-05-23T05:36:04.334Z,99.99
2019-05-23T05:37:04.304Z,99.99
2019-05-23T05:38:04.317Z,99.99
2019-05-23T05:39:04.384Z,99.99
2019-05-23T05:40:04.327Z,99.99
2019-05-23T05:41:04.344Z,99.99
2019-05-23T05:42:04.343Z,99.99
2019-05-23T05:43:04.356Z,99.99
2019-05-23T05:44:04.474Z,99.99
2019-05-23T05:45:04.537Z,99.99
2019-05-23T05:46:04.387Z,99.99
2019-05-23T05:47:04.383Z,99.99
2019-05-23T05:48:04.390Z,99.99
2019-05-23T05:49:04.434Z,99.99
2019-05-23T05:50:04.409Z,99.99
2019-05-23T05:51:04.568Z,99.99
2019-05-23T05:52:04.408Z,99.99
2019-05-23T05:53:04.429Z,99.99
2019-05-23T05:54:04.455Z,99.99
2019-05-23T05:55:04.442Z,99.99
2019-05-23T05:56:04.635Z,99.99
2019-05-23T05:57:04.537Z,99.99
2019-05-23T05:58:04.474Z,99.99
2019-05-23T05:59:04.497Z,99.99
2019-05-23T06:00:04.488Z,99.99
2019-05-23T06:01:04.790Z,99.99
2019-05-23T06:02:04.501Z,99.99
2019-05-23T06:03:05.753Z,99.99
2019-05-23T06:04:04.526Z,99.99
2019-05-23T06:06:04.784Z,99.99
2019-05-23T06:07:04.535Z,99.99
2019-05-23T06:08:04.559Z,99.09
2019-05-23T06:09:04.551Z,98.61
2019-05-23T06:10:04.583Z,98.42
2019-05-23T06:11:04.574Z,98.52
2019-05-23T06:12:04.581Z,98.61
2019-05-23T06:13:04.582Z,98.42
2019-05-23T06:14:04.596Z,98.42
2019-05-23T06:15:04.664Z,98.33
2019-05-23T06:16:04.623Z,98.23
2019-05-23T06:17:04.612Z,98.23
2019-05-23T06:19:04.632Z,97.80
2019-05-23T06:20:04.656Z,97.52
2019-05-23T06:21:04.655Z,96.84
2019-05-23T06:22:04.692Z,96.84
2019-05-23T06:23:04.691Z,96.18
2019-05-23T06:24:04.679Z,95.51
2019-05-23T06:25:04.806Z,95.51
2019-05-23T06:26:04.703Z,95.41
2019-05-23T06:27:04.711Z,94.93
2019-05-23T06:28:04.739Z,95.12
2019-05-23T06:29:04.750Z,94.98
2019-05-23T06:30:04.748Z,95.56
2019-05-23T06:31:04.775Z,95.17
2019-05-23T06:32:04.774Z,94.12
2019-05-23T06:33:21.971Z,93.45
2019-05-23T06:34:04.787Z,93.07
2019-05-23T06:35:04.813Z,93.26
2019-05-23T06:36:04.827Z,93.12
2019-05-23T06:37:04.828Z,92.83
2019-05-23T06:38:04.855Z,92.44
2019-05-23T06:39:04.870Z,91.97
2019-05-23T06:40:04.867Z,91.72
2019-05-23T06:42:04.898Z,90.29
2019-05-23T06:43:04.970Z,90.00
2019-05-23T06:44:04.925Z,90.39
2019-05-23T06:45:05.070Z,90.19
2019-05-23T06:46:04.953Z,90.58
2019-05-23T06:47:04.969Z,90.00
2019-05-23T06:48:04.978Z,90.39
2019-05-23T06:49:04.991Z,89.76
2019-05-23T06:50:05.011Z,88.99
2019-05-23T06:51:05.425Z,89.57
2019-05-23T06:52:05.037Z,89.37
2019-05-23T06:53:05.118Z,87.74
2019-05-23T06:54:05.064Z,87.46
2019-05-23T06:55:05.201Z,86.21
2019-05-23T06:56:05.096Z,85.35
2019-05-23T06:57:05.115Z,85.83
2019-05-23T06:58:05.133Z,85.54
2019-05-23T06:59:05.143Z,85.64
2019-05-23T07:00:05.164Z,85.16
2019-05-23T07:01:05.172Z,85.74
2019-05-23T07:02:05.183Z,86.25
2019-05-23T07:03:05.202Z,85.88
2019-05-23T07:04:05.208Z,85.97
2019-05-23T07:05:05.350Z,85.39
2019-05-23T07:06:05.237Z,84.63
2019-05-23T07:07:05.251Z,84.19
2019-05-23T07:08:05.261Z,83.91
2019-05-23T07:09:05.280Z,83.33
2019-05-23T07:10:05.299Z,83.33
2019-05-23T07:11:05.317Z,83.14
2019-05-23T07:12:05.330Z,82.41
2019-05-23T07:13:05.350Z,81.84
2019-05-23T07:14:05.360Z,81.16
2019-05-23T07:15:05.451Z,81.16
2019-05-23T07:16:05.396Z,80.87
2019-05-23T07:17:05.401Z,81.35
2019-05-23T07:18:05.422Z,82.03
2019-05-23T07:19:05.431Z,80.97
2019-05-23T07:20:05.448Z,79.82
2019-05-23T07:21:05.476Z,80.91
2019-05-23T07:22:05.482Z,79.67
2019-05-23T07:23:05.512Z,79.57
2019-05-23T07:24:05.513Z,79.67
2019-05-23T07:25:05.542Z,79.67
2019-05-23T07:26:05.559Z,78.90
2019-05-23T07:27:05.567Z,79.38
2019-05-23T07:28:05.580Z,78.65
2019-05-23T07:29:05.579Z,78.27
2019-05-23T07:30:05.632Z,77.88
2019-05-23T07:31:05.620Z,77.11
2019-05-23T07:32:05.667Z,76.39
2019-05-23T07:33:05.699Z,76.29
2019-05-23T07:34:05.684Z,75.32
2019-05-23T07:35:05.683Z,75.04
2019-05-23T07:36:05.702Z,74.75
2019-05-23T07:37:05.747Z,74.81
2019-05-23T07:38:05.740Z,74.81
2019-05-23T07:39:05.752Z,75.29
2019-05-23T07:40:05.759Z,74.46
2019-05-23T07:41:05.774Z,74.27
2019-05-23T07:42:05.797Z,73.21
2019-05-23T07:43:05.815Z,72.48
2019-05-23T07:44:05.860Z,72.23
2019-05-23T07:45:05.859Z,71.36
2019-05-23T07:46:05.871Z,70.68
2019-05-23T07:47:05.869Z,71.08
2019-05-23T07:48:05.921Z,69.92
2019-05-23T07:49:05.908Z,68.83
2019-05-23T07:50:05.943Z,69.40
2019-05-23T07:51:05.936Z,70.23
2019-05-23T07:52:05.953Z,71.10
2019-05-23T07:53:05.981Z,71.48
2019-05-23T07:54:06.010Z,71.39
2019-05-23T07:55:06.019Z,70.75
2019-05-23T07:56:06.021Z,69.82
2019-05-23T07:57:06.084Z,68.86
2019-05-23T07:58:06.060Z,68.96
2019-05-23T07:59:06.072Z,68.29
2019-05-23T08:00:06.111Z,68.32
2019-05-23T08:01:06.110Z,67.07
2019-05-23T08:02:06.121Z,66.42
2019-05-23T08:03:06.138Z,66.10
2019-05-23T08:04:20.697Z,66.20
2019-05-23T08:05:06.182Z,66.68
2019-05-23T08:06:06.232Z,66.88
2019-05-23T08:07:06.274Z,66.39
2019-05-23T08:08:06.241Z,66.58
2019-05-23T08:09:06.247Z,66.78
2019-05-23T08:10:06.271Z,66.68
2019-05-23T08:11:06.268Z,66.01
2019-05-23T08:12:06.288Z,66.88
2019-05-23T08:13:06.303Z,66.30
2019-05-23T08:14:06.325Z,66.97
2019-05-23T08:15:06.347Z,66.58
2019-05-23T08:16:06.353Z,66.46
2019-05-23T08:17:06.374Z,66.94
2019-05-23T08:18:06.390Z,67.32
2019-05-23T08:19:06.405Z,67.16
2019-05-23T08:20:06.431Z,66.36
2019-05-23T08:21:06.437Z,67.22
2019-05-23T08:22:06.526Z,67.26
2019-05-23T08:23:06.473Z,66.52
2019-05-23T08:24:06.492Z,65.20
2019-05-23T08:25:06.505Z,64.63
2019-05-23T08:26:06.525Z,64.53
2019-05-23T08:27:06.551Z,65.37
2019-05-23T08:28:06.561Z,65.43
2019-05-23T08:29:24.912Z,66.01
2019-05-23T08:30:06.588Z,66.68
2019-05-23T08:31:06.615Z,66.62
2019-05-23T08:32:06.664Z,64.92
2019-05-23T08:33:06.814Z,63.89
2019-05-23T08:34:06.664Z,62.54
2019-05-23T08:35:06.675Z,61.03
2019-05-23T08:36:06.696Z,59.78
2019-05-23T08:37:06.712Z,60.10
2019-05-23T08:38:06.737Z,59.42
2019-05-23T08:39:06.748Z,60.19
2019-05-23T08:40:06.768Z,60.22
2019-05-23T08:41:06.835Z,59.55
2019-05-23T08:42:06.811Z,59.93
2019-05-23T08:43:06.819Z,59.38
2019-05-23T08:44:06.841Z,58.22
2019-05-23T08:45:06.859Z,57.52
2019-05-23T08:46:06.899Z,57.75
2019-05-23T08:47:06.897Z,59.17
2019-05-23T08:48:06.903Z,60.68
2019-05-23T08:49:06.933Z,60.13
2019-05-23T08:50:06.941Z,60.32
2019-05-23T08:51:06.966Z,59.65
2019-05-23T08:52:06.972Z,59.36
2019-05-23T08:53:06.988Z,58.72
2019-05-23T08:54:07.012Z,57.85
2019-05-23T08:55:07.024Z,56.66
2019-05-23T08:56:17.975Z,56.79
2019-05-23T08:57:07.058Z,58.04
2019-05-23T08:58:07.087Z,58.23
2019-05-23T08:59:07.083Z,56.88
2019-05-23T09:00:07.121Z,57.75
2019-05-23T09:01:07.139Z,57.94
2019-05-23T09:02:07.157Z,57.17
2019-05-23T09:03:07.160Z,57.75
2019-05-23T09:04:07.183Z,57.94
2019-05-23T09:05:07.225Z,57.20
2019-05-23T09:06:07.211Z,55.85
2019-05-23T09:07:07.246Z,56.43
2019-05-23T09:08:07.252Z,56.72
2019-05-23T09:09:27.437Z,57.87
2019-05-23T09:10:07.296Z,57.85
2019-05-23T09:11:07.297Z,57.85
2019-05-23T09:12:07.327Z,57.46
2019-05-23T09:13:07.339Z,57.37
2019-05-23T09:14:07.365Z,57.56
2019-05-23T09:15:10.033Z,56.40
2019-05-23T09:16:07.409Z,55.82
2019-05-23T09:17:07.459Z,55.46
2019-05-23T09:18:07.425Z,55.85
2019-05-23T09:19:07.456Z,55.36
2019-05-23T09:20:07.485Z,54.31
2019-05-23T09:21:07.472Z,55.10
2019-05-23T09:22:07.508Z,54.14
2019-05-23T09:23:07.527Z,53.69
2019-05-23T09:24:07.530Z,53.69
2019-05-23T09:25:07.556Z,53.78
2019-05-23T09:26:07.568Z,53.01
2019-05-23T09:27:07.592Z,52.55
2019-05-23T09:28:07.611Z,53.11
2019-05-23T09:29:07.678Z,53.59
2019-05-23T09:30:07.638Z,53.66
2019-05-23T09:31:07.754Z,53.49
2019-05-23T09:32:07.687Z,53.23
2019-05-23T09:33:07.700Z,52.77
2019-05-23T09:34:07.715Z,51.06
2019-05-23T09:35:20.287Z,50.57
2019-05-23T09:36:07.744Z,51.32
2019-05-23T09:37:07.766Z,51.71
2019-05-23T09:38:07.794Z,52.09
2019-05-23T09:39:07.802Z,51.73
2019-05-23T09:40:07.821Z,50.86
2019-05-23T09:41:07.842Z,49.02
2019-05-23T09:42:11.755Z,46.97
2019-05-23T09:43:07.921Z,46.20
2019-05-23T09:44:07.905Z,46.39
2019-05-23T09:45:07.922Z,46.90
2019-05-23T09:46:07.934Z,46.70
2019-05-23T09:47:07.955Z,45.74
2019-05-23T09:48:07.968Z,46.88
2019-05-23T09:49:11.130Z,48.88
2019-05-23T09:50:08.008Z,48.88
2019-05-23T09:51:08.023Z,47.96
2019-05-23T09:52:08.281Z,47.28
2019-05-23T09:53:08.056Z,46.73
2019-05-23T09:54:08.076Z,46.05
2019-05-23T09:55:08.089Z,45.76
2019-05-23T09:56:08.199Z,45.76
2019-05-23T09:57:08.135Z,46.94
2019-05-23T09:58:08.151Z,45.88
2019-05-23T09:59:08.198Z,45.66
2019-05-23T10:00:08.192Z,45.95
2019-05-23T10:01:08.200Z,45.47
2019-05-23T10:02:08.240Z,45.66
2019-05-23T10:03:08.226Z,45.40
2019-05-23T10:04:08.260Z,44.54
2019-05-23T10:05:08.278Z,44.54
2019-05-23T10:06:08.301Z,43.19
2019-05-23T10:07:08.321Z,44.43
2019-05-23T10:08:08.331Z,45.10
2019-05-23T10:09:08.349Z,45.49
2019-05-23T10:10:08.361Z,45.88
2019-05-23T10:11:08.384Z,46.29
2019-05-23T10:12:08.402Z,45.68
2019-05-23T10:13:08.560Z,46.61
2019-05-23T10:14:08.435Z,48.01
2019-05-23T10:15:08.461Z,48.49
2019-05-23T10:16:08.509Z,48.32
2019-05-23T10:17:08.489Z,47.79
2019-05-23T10:18:08.574Z,46.66
2019-05-23T10:19:08.525Z,46.19
2019-05-23T10:20:08.547Z,44.51
2019-05-23T10:21:08.563Z,43.45
2019-05-23T10:22:08.589Z,42.77
2019-05-23T10:23:08.593Z,42.67
2019-05-23T10:24:08.619Z,42.30
2019-05-23T10:25:08.632Z,42.40
2019-05-23T10:26:08.659Z,42.11
2019-05-23T10:27:08.674Z,41.80
2019-05-23T10:28:08.686Z,42.90
2019-05-23T10:29:08.705Z,44.31
2019-05-23T10:30:08.725Z,44.91
2019-05-23T10:31:08.734Z,43.48
2019-05-23T10:32:08.756Z,42.65
2019-05-23T10:33:12.150Z,42.02
2019-05-23T10:34:08.798Z,40.79
2019-05-23T10:35:08.820Z,40.73
2019-05-23T10:36:08.830Z,41.53
2019-05-23T10:37:08.839Z,40.87
2019-05-23T10:38:08.871Z,40.09
2019-05-23T10:39:08.871Z,40.00
2019-05-23T10:40:08.892Z,39.72
2019-05-23T10:41:08.902Z,39.16
2019-05-23T10:42:08.921Z,39.26
2019-05-23T10:43:08.942Z,38.50
2019-05-23T10:44:08.986Z,37.74
2019-05-23T10:45:08.996Z,37.72
2019-05-23T10:46:08.999Z,39.32
2019-05-23T10:47:09.017Z,40.66
2019-05-23T10:48:09.036Z,40.48
2019-05-23T10:49:09.047Z,40.09
2019-05-23T10:50:10.068Z,39.55
2019-05-23T10:51:09.091Z,39.06
2019-05-23T10:52:09.137Z,38.17
2019-05-23T10:53:09.123Z,38.25
2019-05-23T10:54:09.137Z,39.47
2019-05-23T10:55:09.174Z,40.36
2019-05-23T10:56:09.175Z,40.44
2019-05-23T10:57:09.198Z,41.30
2019-05-23T10:58:09.351Z,41.56
2019-05-23T10:59:09.235Z,42.97
2019-05-23T11:00:09.252Z,43.17
2019-05-23T11:01:09.265Z,42.71
2019-05-23T11:02:09.298Z,42.24
2019-05-23T11:03:09.300Z,41.39
2019-05-23T11:04:09.325Z,40.05
2019-05-23T11:05:13.368Z,39.74
2019-05-23T11:06:16.292Z,39.57
2019-05-23T11:07:09.378Z,39.59
2019-05-23T11:08:09.406Z,39.86
2019-05-23T11:09:09.425Z,39.69
2019-05-23T11:10:09.432Z,38.65
2019-05-23T11:11:14.029Z,37.62
2019-05-23T11:12:09.496Z,36.73
2019-05-23T11:13:09.477Z,37.34
2019-05-23T11:14:09.713Z,37.14
2019-05-23T11:15:09.524Z,37.49
2019-05-23T11:16:09.541Z,38.07
2019-05-23T11:17:09.551Z,38.62
2019-05-23T11:18:09.581Z,39.57
2019-05-23T11:19:09.592Z,40.25
2019-05-23T11:20:09.610Z,40.92
2019-05-23T11:21:09.618Z,39.90
2019-05-23T11:22:09.679Z,39.12
2019-05-23T11:23:09.653Z,39.49
2019-05-23T11:24:09.677Z,39.61
2019-05-23T11:25:09.689Z,39.03
2019-05-23T11:26:09.711Z,38.67
2019-05-23T11:27:09.729Z,37.27
2019-05-23T11:28:09.744Z,36.22
2019-05-23T11:29:09.782Z,36.14
2019-05-23T11:30:09.776Z,34.68
2019-05-23T11:31:09.798Z,34.78
2019-05-23T11:32:09.810Z,34.61
2019-05-23T11:33:09.838Z,34.29
2019-05-23T11:34:09.852Z,34.08
2019-05-23T11:35:09.866Z,34.31
2019-05-23T11:36:09.886Z,32.97
2019-05-23T11:37:09.915Z,32.32
2019-05-23T11:38:09.928Z,31.35
2019-05-23T11:39:09.968Z,30.94
2019-05-23T11:40:09.997Z,30.65
2019-05-23T11:41:09.962Z,30.74
2019-05-23T11:42:09.998Z,30.86
2019-05-23T11:43:10.015Z,30.59
2019-05-23T11:44:10.037Z,30.08
2019-05-23T11:45:10.050Z,31.43
2019-05-23T11:46:10.066Z,32.26
2019-05-23T11:47:10.087Z,33.56
2019-05-23T11:48:10.107Z,34.82
2019-05-23T11:49:10.132Z,34.37
2019-05-23T11:50:10.256Z,33.90
2019-05-23T11:51:10.168Z,33.12
2019-05-23T11:52:10.198Z,34.05
2019-05-23T11:53:10.193Z,34.88
2019-05-23T11:54:10.411Z,35.17
2019-05-23T11:55:10.233Z,35.47
2019-05-23T11:56:10.269Z,34.80
2019-05-23T11:57:10.393Z,34.70
2019-05-23T11:58:10.310Z,34.94
2019-05-23T11:59:10.303Z,33.49
2019-05-23T12:00:10.406Z,33.04
2019-05-23T12:01:10.893Z,33.11
2019-05-23T12:02:10.356Z,34.14
2019-05-23T12:03:10.393Z,35.29
2019-05-23T12:04:10.399Z,35.21
2019-05-23T12:05:10.417Z,35.21
2019-05-23T12:06:10.434Z,35.84
2019-05-23T12:07:10.461Z,36.60
2019-05-23T12:08:10.485Z,37.10
2019-05-23T12:09:10.515Z,36.50
2019-05-23T12:10:10.544Z,36.30
2019-05-23T12:11:10.524Z,36.13
2019-05-23T12:12:10.547Z,36.22
2019-05-23T12:13:10.571Z,36.46
2019-05-23T12:14:10.583Z,36.85
2019-05-23T12:15:10.593Z,37.51
2019-05-23T12:16:10.622Z,38.32
2019-05-23T12:17:10.632Z,37.28
2019-05-23T12:18:10.647Z,36.24
2019-05-23T12:19:10.674Z,35.78
2019-05-23T12:20:10.811Z,34.82
2019-05-23T12:21:10.696Z,34.33
2019-05-23T12:22:10.711Z,33.46
2019-05-23T12:23:11.326Z,34.14
2019-05-23T12:24:10.748Z,33.64
2019-05-23T12:25:21.715Z,34.05
2019-05-23T12:26:10.784Z,34.06
2019-05-23T12:27:10.802Z,33.48
2019-05-23T12:28:10.819Z,34.24
2019-05-23T12:29:10.847Z,35.45
2019-05-23T12:30:10.858Z,35.84
2019-05-23T12:31:10.859Z,36.36
2019-05-23T12:32:10.937Z,35.31
2019-05-23T12:33:10.919Z,34.86
2019-05-23T12:34:10.918Z,34.56
2019-05-23T12:35:12.172Z,34.27
2019-05-23T12:36:10.974Z,33.43
2019-05-23T12:37:20.414Z,33.41
2019-05-23T12:38:10.998Z,34.19
2019-05-23T12:39:11.015Z,33.62
2019-05-23T12:40:11.024Z,33.23
2019-05-23T12:41:11.051Z,32.86
2019-05-23T12:42:11.246Z,32.40
2019-05-23T12:43:11.079Z,31.56
2019-05-23T12:44:11.097Z,30.71
2019-05-23T12:45:11.153Z,29.56
2019-05-23T12:46:11.178Z,29.44
2019-05-23T12:47:11.147Z,30.27
2019-05-23T12:48:11.162Z,31.59
2019-05-23T12:49:11.194Z,32.84
2019-05-23T12:50:11.237Z,32.76
2019-05-23T12:51:11.223Z,32.82
2019-05-23T12:52:11.328Z,33.43
2019-05-23T12:53:11.257Z,32.86
2019-05-23T12:54:11.261Z,32.84
2019-05-23T12:55:11.314Z,33.02
2019-05-23T12:56:11.429Z,33.11